sensor_id;sensor_type;location;lat;lon;timestamp;P1;durP1;ratioP1;P2;durP2;ratioP2
38262;SDS011;24054;50.128;19.730;2023-03-21T00:00:02;21.17;;;15.15;;
38262;SDS011;24054;50.128;19.730;2023-03-21T00:02:31;19.00;;;15.07;;
38262;SDS011;24054;50.128;19.730;2023-03-21T00:05:00;22.92;;;15.63;;
38262;SDS011;24054;50.128;19.730;2023-03-21T00:07:28;21.13;;;15.63;;
38262;SDS011;24054;50.128;19.730;2023-03-21T00:09:55;23.02;;;15.65;;
38262;SDS011;24054;50.128;19.730;2023-03-21T00:12:22;20.70;;;15.48;;
38262;SDS011;24054;50.128;19.730;2023-03-21T00:14:49;19.67;;;14.93;;
38262;SDS011;24054;50.128;19.730;2023-03-21T00:19:46;21.02;;;15.13;;
38262;SDS011;24054;50.128;19.730;2023-03-21T00:22:13;20.92;;;15.15;;
38262;SDS011;24054;50.128;19.730;2023-03-21T00:24:41;19.42;;;14.52;;
38262;SDS011;24054;50.128;19.730;2023-03-21T00:27:09;20.15;;;16.02;;
38262;SDS011;24054;50.128;19.730;2023-03-21T00:29:37;20.92;;;14.80;;
38262;SDS011;24054;50.128;19.730;2023-03-21T00:32:05;20.25;;;14.48;;
38262;SDS011;24054;50.128;19.730;2023-03-21T00:34:32;20.83;;;15.57;;
38262;SDS011;24054;50.128;19.730;2023-03-21T00:36:59;16.58;;;13.35;;
38262;SDS011;24054;50.128;19.730;2023-03-21T00:39:26;26.75;;;15.18;;
38262;SDS011;24054;50.128;19.730;2023-03-21T00:41:54;19.25;;;14.88;;
38262;SDS011;24054;50.128;19.730;2023-03-21T00:44:21;19.38;;;14.32;;
38262;SDS011;24054;50.128;19.730;2023-03-21T00:46:49;19.80;;;14.48;;
38262;SDS011;24054;50.128;19.730;2023-03-21T00:49:16;18.13;;;14.07;;
38262;SDS011;24054;50.128;19.730;2023-03-21T00:51:44;19.23;;;14.80;;
38262;SDS011;24054;50.128;19.730;2023-03-21T00:54:15;20.25;;;14.05;;
38262;SDS011;24054;50.128;19.730;2023-03-21T00:56:42;19.13;;;14.45;;
38262;SDS011;24054;50.128;19.730;2023-03-21T00:59:11;18.85;;;13.90;;
38262;SDS011;24054;50.128;19.730;2023-03-21T01:01:41;19.88;;;14.00;;
38262;SDS011;24054;50.128;19.730;2023-03-21T01:04:11;18.77;;;13.52;;
38262;SDS011;24054;50.128;19.730;2023-03-21T01:06:41;21.60;;;15.05;;
38262;SDS011;24054;50.128;19.730;2023-03-21T01:09:10;20.58;;;15.10;;
38262;SDS011;24054;50.128;19.730;2023-03-21T01:11:39;20.17;;;14.18;;
38262;SDS011;24054;50.128;19.730;2023-03-21T01:14:06;20.13;;;14.73;;
38262;SDS011;24054;50.128;19.730;2023-03-21T01:16:35;20.40;;;14.45;;
38262;SDS011;24054;50.128;19.730;2023-03-21T01:19:02;19.95;;;13.82;;
38262;SDS011;24054;50.128;19.730;2023-03-21T01:21:31;20.05;;;14.30;;
38262;SDS011;24054;50.128;19.730;2023-03-21T01:24:01;18.35;;;13.75;;
38262;SDS011;24054;50.128;19.730;2023-03-21T01:26:28;18.95;;;13.85;;
38262;SDS011;24054;50.128;19.730;2023-03-21T01:28:55;18.33;;;13.70;;
38262;SDS011;24054;50.128;19.730;2023-03-21T01:31:22;18.13;;;14.07;;
38262;SDS011;24054;50.128;19.730;2023-03-21T01:33:50;19.27;;;13.73;;
38262;SDS011;24054;50.128;19.730;2023-03-21T01:36:18;19.55;;;13.50;;
38262;SDS011;24054;50.128;19.730;2023-03-21T01:38:46;19.23;;;14.35;;
38262;SDS011;24054;50.128;19.730;2023-03-21T01:41:16;18.80;;;14.30;;
38262;SDS011;24054;50.128;19.730;2023-03-21T01:43:46;16.98;;;13.20;;
38262;SDS011;24054;50.128;19.730;2023-03-21T01:49:05;18.88;;;13.80;;
38262;SDS011;24054;50.128;19.730;2023-03-21T01:51:38;18.15;;;13.40;;
38262;SDS011;24054;50.128;19.730;2023-03-21T01:54:08;18.58;;;13.55;;
38262;SDS011;24054;50.128;19.730;2023-03-21T01:56:40;18.52;;;13.38;;
38262;SDS011;24054;50.128;19.730;2023-03-21T01:59:13;17.63;;;13.10;;
38262;SDS011;24054;50.128;19.730;2023-03-21T02:01:46;19.10;;;13.80;;
38262;SDS011;24054;50.128;19.730;2023-03-21T02:04:16;15.38;;;12.52;;
38262;SDS011;24054;50.128;19.730;2023-03-21T02:06:53;17.02;;;12.82;;
38262;SDS011;24054;50.128;19.730;2023-03-21T02:09:24;17.05;;;13.35;;
38262;SDS011;24054;50.128;19.730;2023-03-21T02:11:59;18.40;;;13.57;;
38262;SDS011;24054;50.128;19.730;2023-03-21T02:14:26;17.75;;;13.20;;
38262;SDS011;24054;50.128;19.730;2023-03-21T02:17:00;16.38;;;12.75;;
38262;SDS011;24054;50.128;19.730;2023-03-21T02:23:00;16.33;;;12.57;;
38262;SDS011;24054;50.128;19.730;2023-03-21T02:28:52;17.77;;;13.15;;
38262;SDS011;24054;50.128;19.730;2023-03-21T02:31:25;18.02;;;13.38;;
38262;SDS011;24054;50.128;19.730;2023-03-21T02:34:13;15.57;;;12.45;;
38262;SDS011;24054;50.128;19.730;2023-03-21T02:37:13;16.73;;;12.52;;
38262;SDS011;24054;50.128;19.730;2023-03-21T02:39:55;15.55;;;12.23;;
38262;SDS011;24054;50.128;19.730;2023-03-21T02:42:34;16.98;;;12.98;;
38262;SDS011;24054;50.128;19.730;2023-03-21T02:45:11;16.25;;;11.85;;
38262;SDS011;24054;50.128;19.730;2023-03-21T02:47:45;17.30;;;12.75;;
38262;SDS011;24054;50.128;19.730;2023-03-21T02:50:16;16.85;;;13.32;;
38262;SDS011;24054;50.128;19.730;2023-03-21T02:52:49;15.27;;;11.98;;
38262;SDS011;24054;50.128;19.730;2023-03-21T02:55:21;16.17;;;12.35;;
38262;SDS011;24054;50.128;19.730;2023-03-21T02:57:50;16.90;;;13.10;;
38262;SDS011;24054;50.128;19.730;2023-03-21T03:00:20;19.13;;;12.63;;
38262;SDS011;24054;50.128;19.730;2023-03-21T03:02:50;15.75;;;11.85;;
38262;SDS011;24054;50.128;19.730;2023-03-21T03:05:19;18.27;;;12.32;;
38262;SDS011;24054;50.128;19.730;2023-03-21T03:07:57;14.18;;;12.18;;
38262;SDS011;24054;50.128;19.730;2023-03-21T03:10:42;15.07;;;11.48;;
38262;SDS011;24054;50.128;19.730;2023-03-21T03:13:20;15.95;;;12.77;;
38262;SDS011;24054;50.128;19.730;2023-03-21T03:16:01;15.63;;;12.52;;
38262;SDS011;24054;50.128;19.730;2023-03-21T03:18:38;15.00;;;12.10;;
38262;SDS011;24054;50.128;19.730;2023-03-21T03:21:14;15.15;;;11.52;;
38262;SDS011;24054;50.128;19.730;2023-03-21T03:23:47;15.88;;;12.00;;
38262;SDS011;24054;50.128;19.730;2023-03-21T03:26:18;16.70;;;11.98;;
38262;SDS011;24054;50.128;19.730;2023-03-21T03:28:49;15.48;;;11.75;;
38262;SDS011;24054;50.128;19.730;2023-03-21T03:31:19;15.80;;;12.10;;
38262;SDS011;24054;50.128;19.730;2023-03-21T03:33:50;15.52;;;12.23;;
38262;SDS011;24054;50.128;19.730;2023-03-21T03:36:20;15.80;;;11.70;;
38262;SDS011;24054;50.128;19.730;2023-03-21T03:38:54;14.07;;;11.77;;
38262;SDS011;24054;50.128;19.730;2023-03-21T03:41:23;15.75;;;11.85;;
38262;SDS011;24054;50.128;19.730;2023-03-21T03:43:52;15.57;;;12.38;;
38262;SDS011;24054;50.128;19.730;2023-03-21T03:46:24;15.88;;;12.57;;
38262;SDS011;24054;50.128;19.730;2023-03-21T03:48:55;16.23;;;12.50;;
38262;SDS011;24054;50.128;19.730;2023-03-21T03:51:27;14.75;;;11.57;;
38262;SDS011;24054;50.128;19.730;2023-03-21T03:53:59;14.15;;;11.18;;
38262;SDS011;24054;50.128;19.730;2023-03-21T03:56:29;14.48;;;10.93;;
38262;SDS011;24054;50.128;19.730;2023-03-21T03:58:57;15.52;;;12.05;;
38262;SDS011;24054;50.128;19.730;2023-03-21T04:01:24;15.63;;;11.50;;
38262;SDS011;24054;50.128;19.730;2023-03-21T04:03:51;16.60;;;11.45;;
38262;SDS011;24054;50.128;19.730;2023-03-21T04:06:19;15.63;;;11.40;;
38262;SDS011;24054;50.128;19.730;2023-03-21T04:08:46;13.60;;;11.05;;
38262;SDS011;24054;50.128;19.730;2023-03-21T04:13:43;14.05;;;10.95;;
38262;SDS011;24054;50.128;19.730;2023-03-21T04:16:10;14.98;;;10.68;;
38262;SDS011;24054;50.128;19.730;2023-03-21T04:18:37;14.88;;;10.95;;
38262;SDS011;24054;50.128;19.730;2023-03-21T04:21:06;15.88;;;10.90;;
38262;SDS011;24054;50.128;19.730;2023-03-21T04:23:34;13.77;;;10.68;;
38262;SDS011;24054;50.128;19.730;2023-03-21T04:26:01;16.58;;;11.40;;
38262;SDS011;24054;50.128;19.730;2023-03-21T04:28:30;12.43;;;10.70;;
38262;SDS011;24054;50.128;19.730;2023-03-21T04:33:24;13.38;;;10.57;;
38262;SDS011;24054;50.128;19.730;2023-03-21T04:35:51;14.02;;;10.80;;
38262;SDS011;24054;50.128;19.730;2023-03-21T04:38:20;13.85;;;9.95;;
38262;SDS011;24054;50.128;19.730;2023-03-21T04:40:47;12.52;;;10.18;;
38262;SDS011;24054;50.128;19.730;2023-03-21T04:43:14;12.50;;;10.07;;
38262;SDS011;24054;50.128;19.730;2023-03-21T04:45:43;13.57;;;10.43;;
38262;SDS011;24054;50.128;19.730;2023-03-21T04:48:09;11.75;;;10.13;;
38262;SDS011;24054;50.128;19.730;2023-03-21T04:50:38;13.70;;;10.35;;
38262;SDS011;24054;50.128;19.730;2023-03-21T04:53:05;12.40;;;10.35;;
38262;SDS011;24054;50.128;19.730;2023-03-21T04:55:32;13.27;;;10.55;;
38262;SDS011;24054;50.128;19.730;2023-03-21T04:58:00;12.55;;;10.10;;
38262;SDS011;24054;50.128;19.730;2023-03-21T05:00:28;15.00;;;10.82;;
38262;SDS011;24054;50.128;19.730;2023-03-21T05:02:57;14.80;;;11.25;;
38262;SDS011;24054;50.128;19.730;2023-03-21T05:05:24;11.52;;;9.70;;
38262;SDS011;24054;50.128;19.730;2023-03-21T05:07:51;13.27;;;10.32;;
38262;SDS011;24054;50.128;19.730;2023-03-21T05:10:18;11.82;;;9.32;;
38262;SDS011;24054;50.128;19.730;2023-03-21T05:12:45;13.60;;;10.10;;
38262;SDS011;24054;50.128;19.730;2023-03-21T05:15:12;13.30;;;9.85;;
38262;SDS011;24054;50.128;19.730;2023-03-21T05:17:39;13.35;;;10.32;;
38262;SDS011;24054;50.128;19.730;2023-03-21T05:20:08;13.43;;;9.95;;
38262;SDS011;24054;50.128;19.730;2023-03-21T05:22:36;12.70;;;10.18;;
38262;SDS011;24054;50.128;19.730;2023-03-21T05:25:06;12.60;;;9.73;;
38262;SDS011;24054;50.128;19.730;2023-03-21T05:27:34;11.80;;;8.40;;
38262;SDS011;24054;50.128;19.730;2023-03-21T05:30:02;11.70;;;9.15;;
38262;SDS011;24054;50.128;19.730;2023-03-21T05:32:35;12.48;;;9.95;;
38262;SDS011;24054;50.128;19.730;2023-03-21T05:35:03;11.57;;;9.15;;
38262;SDS011;24054;50.128;19.730;2023-03-21T05:37:32;10.98;;;8.88;;
38262;SDS011;24054;50.128;19.730;2023-03-21T05:39:59;11.05;;;8.90;;
38262;SDS011;24054;50.128;19.730;2023-03-21T05:42:26;13.70;;;9.80;;
38262;SDS011;24054;50.128;19.730;2023-03-21T05:44:53;12.25;;;9.93;;
38262;SDS011;24054;50.128;19.730;2023-03-21T05:47:20;11.43;;;8.45;;
38262;SDS011;24054;50.128;19.730;2023-03-21T05:49:47;11.95;;;9.38;;
38262;SDS011;24054;50.128;19.730;2023-03-21T05:52:15;10.63;;;9.13;;
38262;SDS011;24054;50.128;19.730;2023-03-21T05:54:43;11.20;;;9.05;;
38262;SDS011;24054;50.128;19.730;2023-03-21T05:57:10;12.70;;;9.40;;
38262;SDS011;24054;50.128;19.730;2023-03-21T05:59:37;11.30;;;8.70;;
38262;SDS011;24054;50.128;19.730;2023-03-21T06:02:04;10.73;;;9.35;;
38262;SDS011;24054;50.128;19.730;2023-03-21T06:04:31;11.02;;;9.35;;
38262;SDS011;24054;50.128;19.730;2023-03-21T06:06:58;10.13;;;8.98;;
38262;SDS011;24054;50.128;19.730;2023-03-21T06:09:25;10.18;;;8.55;;
38262;SDS011;24054;50.128;19.730;2023-03-21T06:11:54;10.95;;;9.05;;
38262;SDS011;24054;50.128;19.730;2023-03-21T06:14:23;11.85;;;9.05;;
38262;SDS011;24054;50.128;19.730;2023-03-21T06:16:50;11.03;;;8.67;;
38262;SDS011;24054;50.128;19.730;2023-03-21T06:19:18;10.53;;;8.53;;
38262;SDS011;24054;50.128;19.730;2023-03-21T06:21:46;9.38;;;8.20;;
38262;SDS011;24054;50.128;19.730;2023-03-21T06:24:13;10.57;;;8.65;;
38262;SDS011;24054;50.128;19.730;2023-03-21T06:26:40;10.05;;;8.55;;
38262;SDS011;24054;50.128;19.730;2023-03-21T06:29:08;10.52;;;8.38;;
38262;SDS011;24054;50.128;19.730;2023-03-21T06:31:35;10.10;;;7.65;;
38262;SDS011;24054;50.128;19.730;2023-03-21T06:34:02;10.23;;;7.57;;
38262;SDS011;24054;50.128;19.730;2023-03-21T06:36:29;9.73;;;7.93;;
38262;SDS011;24054;50.128;19.730;2023-03-21T06:38:56;16.17;;;8.65;;
38262;SDS011;24054;50.128;19.730;2023-03-21T06:41:24;8.27;;;7.20;;
38262;SDS011;24054;50.128;19.730;2023-03-21T06:43:50;9.07;;;7.50;;
38262;SDS011;24054;50.128;19.730;2023-03-21T06:46:19;9.88;;;7.82;;
38262;SDS011;24054;50.128;19.730;2023-03-21T06:48:46;9.45;;;7.28;;
38262;SDS011;24054;50.128;19.730;2023-03-21T06:51:14;8.48;;;6.93;;
38262;SDS011;24054;50.128;19.730;2023-03-21T06:53:41;8.77;;;7.63;;
38262;SDS011;24054;50.128;19.730;2023-03-21T06:56:09;9.88;;;7.35;;
38262;SDS011;24054;50.128;19.730;2023-03-21T06:58:37;10.25;;;7.30;;
38262;SDS011;24054;50.128;19.730;2023-03-21T07:01:05;11.25;;;6.72;;
38262;SDS011;24054;50.128;19.730;2023-03-21T07:03:34;10.40;;;6.82;;
38262;SDS011;24054;50.128;19.730;2023-03-21T07:06:05;11.60;;;6.75;;
38262;SDS011;24054;50.128;19.730;2023-03-21T07:08:35;10.32;;;6.28;;
38262;SDS011;24054;50.128;19.730;2023-03-21T07:11:03;11.18;;;6.07;;
38262;SDS011;24054;50.128;19.730;2023-03-21T07:13:30;10.68;;;6.35;;
38262;SDS011;24054;50.128;19.730;2023-03-21T07:15:58;11.48;;;6.85;;
38262;SDS011;24054;50.128;19.730;2023-03-21T07:18:25;7.88;;;6.15;;
38262;SDS011;24054;50.128;19.730;2023-03-21T07:20:54;10.68;;;6.15;;
38262;SDS011;24054;50.128;19.730;2023-03-21T07:23:21;13.10;;;7.90;;
38262;SDS011;24054;50.128;19.730;2023-03-21T07:25:51;32.47;;;15.05;;
38262;SDS011;24054;50.128;19.730;2023-03-21T07:28:18;50.17;;;23.15;;
38262;SDS011;24054;50.128;19.730;2023-03-21T07:30:50;50.30;;;23.63;;
38262;SDS011;24054;50.128;19.730;2023-03-21T07:33:18;62.80;;;27.25;;
38262;SDS011;24054;50.128;19.730;2023-03-21T07:35:47;62.80;;;28.65;;
38262;SDS011;24054;50.128;19.730;2023-03-21T07:38:15;70.63;;;28.52;;
38262;SDS011;24054;50.128;19.730;2023-03-21T07:40:43;61.17;;;26.25;;
38262;SDS011;24054;50.128;19.730;2023-03-21T07:43:10;64.40;;;27.58;;
38262;SDS011;24054;50.128;19.730;2023-03-21T07:45:38;61.83;;;27.80;;
38262;SDS011;24054;50.128;19.730;2023-03-21T07:50:34;51.25;;;24.95;;
38262;SDS011;24054;50.128;19.730;2023-03-21T07:53:01;57.90;;;25.80;;
38262;SDS011;24054;50.128;19.730;2023-03-21T07:55:30;53.17;;;25.35;;
38262;SDS011;24054;50.128;19.730;2023-03-21T07:57:58;58.55;;;26.17;;
38262;SDS011;24054;50.128;19.730;2023-03-21T08:00:27;55.20;;;25.38;;
38262;SDS011;24054;50.128;19.730;2023-03-21T08:02:56;53.00;;;24.48;;
38262;SDS011;24054;50.128;19.730;2023-03-21T08:05:24;59.17;;;25.10;;
38262;SDS011;24054;50.128;19.730;2023-03-21T08:07:56;57.03;;;23.98;;
38262;SDS011;24054;50.128;19.730;2023-03-21T08:10:23;49.33;;;24.25;;
38262;SDS011;24054;50.128;19.730;2023-03-21T08:12:52;53.33;;;24.10;;
38262;SDS011;24054;50.128;19.730;2023-03-21T08:15:20;48.67;;;23.35;;
38262;SDS011;24054;50.128;19.730;2023-03-21T08:17:47;50.97;;;24.33;;
38262;SDS011;24054;50.128;19.730;2023-03-21T08:20:15;49.00;;;21.50;;
38262;SDS011;24054;50.128;19.730;2023-03-21T08:22:45;49.10;;;21.50;;
38262;SDS011;24054;50.128;19.730;2023-03-21T08:25:13;52.67;;;22.17;;
38262;SDS011;24054;50.128;19.730;2023-03-21T08:27:42;56.28;;;24.45;;
38262;SDS011;24054;50.128;19.730;2023-03-21T08:32:39;45.03;;;20.83;;
38262;SDS011;24054;50.128;19.730;2023-03-21T08:35:07;47.78;;;21.15;;
38262;SDS011;24054;50.128;19.730;2023-03-21T08:37:36;45.20;;;20.15;;
38262;SDS011;24054;50.128;19.730;2023-03-21T08:40:03;44.55;;;20.90;;
38262;SDS011;24054;50.128;19.730;2023-03-21T08:42:35;43.72;;;19.55;;
38262;SDS011;24054;50.128;19.730;2023-03-21T08:45:02;52.35;;;21.02;;
38262;SDS011;24054;50.128;19.730;2023-03-21T08:47:31;44.40;;;20.48;;
38262;SDS011;24054;50.128;19.730;2023-03-21T08:49:59;36.00;;;18.27;;
38262;SDS011;24054;50.128;19.730;2023-03-21T08:52:28;40.92;;;19.05;;
38262;SDS011;24054;50.128;19.730;2023-03-21T08:54:55;43.00;;;19.15;;
38262;SDS011;24054;50.128;19.730;2023-03-21T08:57:22;39.58;;;18.40;;
38262;SDS011;24054;50.128;19.730;2023-03-21T08:59:49;44.13;;;18.67;;
38262;SDS011;24054;50.128;19.730;2023-03-21T09:02:16;42.00;;;18.17;;
38262;SDS011;24054;50.128;19.730;2023-03-21T09:04:46;47.45;;;19.20;;
38262;SDS011;24054;50.128;19.730;2023-03-21T09:07:14;34.78;;;16.95;;
38262;SDS011;24054;50.128;19.730;2023-03-21T09:09:42;34.17;;;18.10;;
38262;SDS011;24054;50.128;19.730;2023-03-21T09:12:09;35.38;;;17.17;;
38262;SDS011;24054;50.128;19.730;2023-03-21T09:14:36;37.35;;;18.27;;
38262;SDS011;24054;50.128;19.730;2023-03-21T09:17:03;33.08;;;16.48;;
38262;SDS011;24054;50.128;19.730;2023-03-21T09:19:30;39.15;;;16.98;;
38262;SDS011;24054;50.128;19.730;2023-03-21T09:22:00;31.33;;;16.30;;
38262;SDS011;24054;50.128;19.730;2023-03-21T09:26:55;31.88;;;15.38;;
38262;SDS011;24054;50.128;19.730;2023-03-21T09:29:22;32.67;;;15.93;;
38262;SDS011;24054;50.128;19.730;2023-03-21T09:31:49;29.55;;;15.80;;
38262;SDS011;24054;50.128;19.730;2023-03-21T09:34:17;30.88;;;14.90;;
38262;SDS011;24054;50.128;19.730;2023-03-21T09:36:45;34.95;;;16.67;;
38262;SDS011;24054;50.128;19.730;2023-03-21T09:39:20;28.25;;;15.20;;
38262;SDS011;24054;50.128;19.730;2023-03-21T09:44:26;29.20;;;14.65;;
38262;SDS011;24054;50.128;19.730;2023-03-21T09:52:02;27.02;;;14.30;;
38262;SDS011;24054;50.128;19.730;2023-03-21T09:54:38;26.35;;;13.57;;
38262;SDS011;24054;50.128;19.730;2023-03-21T09:57:10;34.58;;;14.20;;
38262;SDS011;24054;50.128;19.730;2023-03-21T09:59:45;24.50;;;12.88;;
38262;SDS011;24054;50.128;19.730;2023-03-21T10:02:19;27.42;;;12.90;;
38262;SDS011;24054;50.128;19.730;2023-03-21T10:04:56;24.02;;;13.18;;
38262;SDS011;24054;50.128;19.730;2023-03-21T10:07:24;25.03;;;12.73;;
38262;SDS011;24054;50.128;19.730;2023-03-21T10:09:57;24.83;;;12.13;;
38262;SDS011;24054;50.128;19.730;2023-03-21T10:12:25;22.13;;;12.10;;
38262;SDS011;24054;50.128;19.730;2023-03-21T10:17:25;22.10;;;11.85;;
38262;SDS011;24054;50.128;19.730;2023-03-21T10:20:00;26.05;;;12.65;;
38262;SDS011;24054;50.128;19.730;2023-03-21T10:22:35;20.45;;;11.18;;
38262;SDS011;24054;50.128;19.730;2023-03-21T10:25:04;25.52;;;12.07;;
38262;SDS011;24054;50.128;19.730;2023-03-21T10:27:33;24.60;;;10.70;;
38262;SDS011;24054;50.128;19.730;2023-03-21T10:32:31;23.88;;;11.50;;
38262;SDS011;24054;50.128;19.730;2023-03-21T10:35:00;20.58;;;11.10;;
38262;SDS011;24054;50.128;19.730;2023-03-21T10:37:29;22.48;;;11.77;;
38262;SDS011;24054;50.128;19.730;2023-03-21T10:39:57;18.67;;;10.70;;
38262;SDS011;24054;50.128;19.730;2023-03-21T10:42:26;17.58;;;10.40;;
38262;SDS011;24054;50.128;19.730;2023-03-21T10:44:57;19.33;;;9.32;;
38262;SDS011;24054;50.128;19.730;2023-03-21T10:47:25;17.13;;;9.88;;
38262;SDS011;24054;50.128;19.730;2023-03-21T10:49:53;16.92;;;9.27;;
38262;SDS011;24054;50.128;19.730;2023-03-21T10:52:21;17.55;;;9.38;;
38262;SDS011;24054;50.128;19.730;2023-03-21T10:55:02;17.60;;;9.35;;
38262;SDS011;24054;50.128;19.730;2023-03-21T10:57:37;18.92;;;9.77;;
38262;SDS011;24054;50.128;19.730;2023-03-21T11:00:06;15.02;;;9.05;;
38262;SDS011;24054;50.128;19.730;2023-03-21T11:02:47;15.27;;;8.23;;
38262;SDS011;24054;50.128;19.730;2023-03-21T11:05:18;16.55;;;8.73;;
38262;SDS011;24054;50.128;19.730;2023-03-21T11:07:54;16.67;;;9.77;;
38262;SDS011;24054;50.128;19.730;2023-03-21T11:10:27;16.47;;;8.53;;
38262;SDS011;24054;50.128;19.730;2023-03-21T11:13:00;15.27;;;8.77;;
38262;SDS011;24054;50.128;19.730;2023-03-21T11:15:31;15.70;;;8.65;;
38262;SDS011;24054;50.128;19.730;2023-03-21T11:18:12;13.35;;;7.88;;
38262;SDS011;24054;50.128;19.730;2023-03-21T11:20:47;16.73;;;8.40;;
38262;SDS011;24054;50.128;19.730;2023-03-21T11:23:15;13.02;;;8.05;;
38262;SDS011;24054;50.128;19.730;2023-03-21T11:25:44;14.25;;;8.88;;
38262;SDS011;24054;50.128;19.730;2023-03-21T11:28:17;16.90;;;8.50;;
38262;SDS011;24054;50.128;19.730;2023-03-21T11:30:54;15.25;;;8.15;;
38262;SDS011;24054;50.128;19.730;2023-03-21T11:33:25;14.43;;;8.57;;
38262;SDS011;24054;50.128;19.730;2023-03-21T11:35:59;14.88;;;8.63;;
38262;SDS011;24054;50.128;19.730;2023-03-21T11:38:29;16.13;;;8.18;;
38262;SDS011;24054;50.128;19.730;2023-03-21T11:40:58;11.20;;;7.00;;
38262;SDS011;24054;50.128;19.730;2023-03-21T11:43:29;14.00;;;7.72;;
38262;SDS011;24054;50.128;19.730;2023-03-21T11:45:59;12.52;;;7.65;;
38262;SDS011;24054;50.128;19.730;2023-03-21T11:48:32;16.17;;;7.95;;
38262;SDS011;24054;50.128;19.730;2023-03-21T11:51:09;12.60;;;7.10;;
38262;SDS011;24054;50.128;19.730;2023-03-21T11:53:43;14.68;;;8.23;;
38262;SDS011;24054;50.128;19.730;2023-03-21T11:56:23;14.50;;;7.50;;
38262;SDS011;24054;50.128;19.730;2023-03-21T12:01:47;11.52;;;7.35;;
38262;SDS011;24054;50.128;19.730;2023-03-21T12:04:41;12.15;;;7.10;;
38262;SDS011;24054;50.128;19.730;2023-03-21T12:10:23;14.02;;;8.13;;
38262;SDS011;24054;50.128;19.730;2023-03-21T12:12:58;14.90;;;7.93;;
38262;SDS011;24054;50.128;19.730;2023-03-21T12:15:38;11.90;;;7.00;;
38262;SDS011;24054;50.128;19.730;2023-03-21T12:18:14;10.63;;;6.72;;
38262;SDS011;24054;50.128;19.730;2023-03-21T12:20:58;10.50;;;6.72;;
38262;SDS011;24054;50.128;19.730;2023-03-21T12:23:41;17.05;;;7.13;;
38262;SDS011;24054;50.128;19.730;2023-03-21T12:26:21;12.77;;;6.68;;
38262;SDS011;24054;50.128;19.730;2023-03-21T12:29:04;11.43;;;6.60;;
38262;SDS011;24054;50.128;19.730;2023-03-21T12:31:54;11.38;;;7.03;;
38262;SDS011;24054;50.128;19.730;2023-03-21T12:34:42;12.90;;;7.28;;
38262;SDS011;24054;50.128;19.730;2023-03-21T12:37:30;20.75;;;8.50;;
38262;SDS011;24054;50.128;19.730;2023-03-21T12:40:02;10.68;;;6.50;;
38262;SDS011;24054;50.128;19.730;2023-03-21T12:42:46;13.98;;;7.60;;
38262;SDS011;24054;50.128;19.730;2023-03-21T12:45:25;9.10;;;6.40;;
38262;SDS011;24054;50.128;19.730;2023-03-21T12:47:59;12.90;;;7.13;;
38262;SDS011;24054;50.128;19.730;2023-03-21T12:50:30;10.40;;;7.47;;
38262;SDS011;24054;50.128;19.730;2023-03-21T12:53:04;12.50;;;7.22;;
38262;SDS011;24054;50.128;19.730;2023-03-21T12:55:36;12.13;;;6.75;;
38262;SDS011;24054;50.128;19.730;2023-03-21T12:58:08;12.38;;;6.35;;
38262;SDS011;24054;50.128;19.730;2023-03-21T13:00:42;12.40;;;6.22;;
38262;SDS011;24054;50.128;19.730;2023-03-21T13:03:15;10.07;;;6.80;;
38262;SDS011;24054;50.128;19.730;2023-03-21T13:05:49;12.15;;;7.00;;
38262;SDS011;24054;50.128;19.730;2023-03-21T13:08:22;11.32;;;6.65;;
38262;SDS011;24054;50.128;19.730;2023-03-21T13:10:52;11.57;;;7.13;;
38262;SDS011;24054;50.128;19.730;2023-03-21T13:13:21;9.13;;;6.72;;
38262;SDS011;24054;50.128;19.730;2023-03-21T13:16:01;11.35;;;6.68;;
38262;SDS011;24054;50.128;19.730;2023-03-21T13:18:40;10.40;;;6.65;;
38262;SDS011;24054;50.128;19.730;2023-03-21T13:21:18;15.85;;;7.97;;
38262;SDS011;24054;50.128;19.730;2023-03-21T13:24:04;12.32;;;7.47;;
38262;SDS011;24054;50.128;19.730;2023-03-21T13:26:44;8.30;;;6.15;;
38262;SDS011;24054;50.128;19.730;2023-03-21T13:29:20;13.95;;;6.50;;
38262;SDS011;24054;50.128;19.730;2023-03-21T13:31:50;18.17;;;6.95;;
38262;SDS011;24054;50.128;19.730;2023-03-21T13:34:21;15.40;;;7.20;;
38262;SDS011;24054;50.128;19.730;2023-03-21T13:36:50;15.13;;;6.13;;
38262;SDS011;24054;50.128;19.730;2023-03-21T13:39:18;11.98;;;6.47;;
38262;SDS011;24054;50.128;19.730;2023-03-21T13:41:49;13.63;;;6.57;;
38262;SDS011;24054;50.128;19.730;2023-03-21T13:44:24;18.75;;;7.50;;
38262;SDS011;24054;50.128;19.730;2023-03-21T13:46:59;11.02;;;6.50;;
38262;SDS011;24054;50.128;19.730;2023-03-21T13:49:30;8.45;;;6.60;;
38262;SDS011;24054;50.128;19.730;2023-03-21T13:52:00;11.75;;;6.25;;
38262;SDS011;24054;50.128;19.730;2023-03-21T13:54:30;9.80;;;5.80;;
38262;SDS011;24054;50.128;19.730;2023-03-21T13:57:23;10.50;;;6.50;;
38262;SDS011;24054;50.128;19.730;2023-03-21T14:00:17;10.27;;;6.78;;
38262;SDS011;24054;50.128;19.730;2023-03-21T14:02:57;8.10;;;5.53;;
38262;SDS011;24054;50.128;19.730;2023-03-21T14:05:29;11.43;;;6.00;;
38262;SDS011;24054;50.128;19.730;2023-03-21T14:07:57;7.55;;;5.30;;
38262;SDS011;24054;50.128;19.730;2023-03-21T14:10:30;7.82;;;5.45;;
38262;SDS011;24054;50.128;19.730;2023-03-21T14:13:01;9.13;;;5.55;;
38262;SDS011;24054;50.128;19.730;2023-03-21T14:15:32;10.52;;;5.40;;
38262;SDS011;24054;50.128;19.730;2023-03-21T14:18:05;6.68;;;5.32;;
38262;SDS011;24054;50.128;19.730;2023-03-21T14:20:35;8.15;;;5.45;;
38262;SDS011;24054;50.128;19.730;2023-03-21T14:23:03;10.15;;;4.93;;
38262;SDS011;24054;50.128;19.730;2023-03-21T14:25:32;7.43;;;5.47;;
38262;SDS011;24054;50.128;19.730;2023-03-21T14:28:05;7.47;;;5.25;;
38262;SDS011;24054;50.128;19.730;2023-03-21T14:30:41;8.65;;;4.55;;
38262;SDS011;24054;50.128;19.730;2023-03-21T14:33:12;9.15;;;5.35;;
38262;SDS011;24054;50.128;19.730;2023-03-21T14:35:46;5.90;;;4.65;;
38262;SDS011;24054;50.128;19.730;2023-03-21T14:38:19;6.72;;;4.93;;
38262;SDS011;24054;50.128;19.730;2023-03-21T14:40:49;7.65;;;4.68;;
38262;SDS011;24054;50.128;19.730;2023-03-21T14:43:19;6.97;;;5.13;;
38262;SDS011;24054;50.128;19.730;2023-03-21T14:45:48;8.25;;;4.68;;
38262;SDS011;24054;50.128;19.730;2023-03-21T14:48:18;6.45;;;4.57;;
38262;SDS011;24054;50.128;19.730;2023-03-21T14:50:57;7.68;;;4.95;;
38262;SDS011;24054;50.128;19.730;2023-03-21T14:53:29;6.65;;;4.68;;
38262;SDS011;24054;50.128;19.730;2023-03-21T14:55:59;7.13;;;4.72;;
38262;SDS011;24054;50.128;19.730;2023-03-21T14:58:28;7.32;;;4.68;;
38262;SDS011;24054;50.128;19.730;2023-03-21T15:00:59;7.47;;;4.53;;
38262;SDS011;24054;50.128;19.730;2023-03-21T15:03:28;5.13;;;3.90;;
38262;SDS011;24054;50.128;19.730;2023-03-21T15:06:00;5.95;;;4.25;;
38262;SDS011;24054;50.128;19.730;2023-03-21T15:10:55;5.30;;;4.70;;
38262;SDS011;24054;50.128;19.730;2023-03-21T15:13:24;5.13;;;4.00;;
38262;SDS011;24054;50.128;19.730;2023-03-21T15:15:54;6.22;;;4.40;;
38262;SDS011;24054;50.128;19.730;2023-03-21T15:18:25;7.28;;;4.18;;
38262;SDS011;24054;50.128;19.730;2023-03-21T15:20:54;7.22;;;4.25;;